sensor_id;sensor_type;location;lat;lon;timestamp;pressure;altitude;pressure_sealevel;temperature;humidity
64298;BME280;50639;53.270;7.956;2023-07-13T00:00:19;101245.75;;;15.09;74.98
64298;BME280;50639;53.270;7.956;2023-07-13T00:02:44;101255.06;;;14.99;75.55
64298;BME280;50639;53.270;7.956;2023-07-13T00:05:10;101257.75;;;14.99;75.51
64298;BME280;50639;53.270;7.956;2023-07-13T00:07:37;101255.28;;;14.91;76.12
64298;BME280;50639;53.270;7.956;2023-07-13T00:10:04;101259.19;;;14.95;75.69
64298;BME280;50639;53.270;7.956;2023-07-13T00:12:32;101255.06;;;14.99;75.72
64298;BME280;50639;53.270;7.956;2023-07-13T00:14:59;101253.00;;;15.01;75.64
64298;BME280;50639;53.270;7.956;2023-07-13T00:17:26;101252.81;;;15.03;75.51
64298;BME280;50639;53.270;7.956;2023-07-13T00:19:52;101247.63;;;15.01;75.22
64298;BME280;50639;53.270;7.956;2023-07-13T00:22:18;101249.69;;;15.13;75.25
64298;BME280;50639;53.270;7.956;2023-07-13T00:24:44;101251.94;;;15.29;74.79
64298;BME280;50639;53.270;7.956;2023-07-13T00:27:10;101252.94;;;15.34;74.63
64298;BME280;50639;53.270;7.956;2023-07-13T00:29:36;101257.25;;;15.42;75.06
64298;BME280;50639;53.270;7.956;2023-07-13T00:32:04;101259.94;;;15.49;74.86
64298;BME280;50639;53.270;7.956;2023-07-13T00:34:30;101257.03;;;15.50;74.83
64298;BME280;50639;53.270;7.956;2023-07-13T00:36:56;101254.34;;;15.50;74.62
64298;BME280;50639;53.270;7.956;2023-07-13T00:39:22;101255.81;;;15.46;74.67
64298;BME280;50639;53.270;7.956;2023-07-13T00:41:48;101253.13;;;15.39;75.19
64298;BME280;50639;53.270;7.956;2023-07-13T00:44:17;101251.94;;;15.29;75.05
64298;BME280;50639;53.270;7.956;2023-07-13T00:46:43;101258.56;;;15.13;75.95
64298;BME280;50639;53.270;7.956;2023-07-13T00:49:12;101261.47;;;15.12;75.43
64298;BME280;50639;53.270;7.956;2023-07-13T00:52:02;101259.00;;;15.10;75.98
64298;BME280;50639;53.270;7.956;2023-07-13T00:54:38;101257.75;;;15.13;75.68
64298;BME280;50639;53.270;7.956;2023-07-13T00:57:09;101252.16;;;15.07;76.11
64298;BME280;50639;53.270;7.956;2023-07-13T00:59:41;101258.78;;;14.98;75.91
64298;BME280;50639;53.270;7.956;2023-07-13T01:02:07;101254.66;;;15.02;75.71
64298;BME280;50639;53.270;7.956;2023-07-13T01:04:33;101255.91;;;14.93;75.92
64298;BME280;50639;53.270;7.956;2023-07-13T01:06:58;101262.31;;;14.73;77.03
64298;BME280;50639;53.270;7.956;2023-07-13T01:09:26;101262.75;;;14.83;76.52
64298;BME280;50639;53.270;7.956;2023-07-13T01:11:52;101255.91;;;14.80;76.80
64298;BME280;50639;53.270;7.956;2023-07-13T01:14:17;101257.97;;;14.78;76.27
64298;BME280;50639;53.270;7.956;2023-07-13T01:16:45;101250.94;;;14.71;76.13
64298;BME280;50639;53.270;7.956;2023-07-13T01:19:30;101255.28;;;14.78;76.48
64298;BME280;50639;53.270;7.956;2023-07-13T01:22:06;101255.28;;;14.72;76.18
64298;BME280;50639;53.270;7.956;2023-07-13T01:24:35;101257.78;;;14.80;75.90
64298;BME280;50639;53.270;7.956;2023-07-13T01:27:02;101255.50;;;14.77;75.90
64298;BME280;50639;53.270;7.956;2023-07-13T01:29:31;101262.09;;;14.87;74.81
64298;BME280;50639;53.270;7.956;2023-07-13T01:31:58;101253.00;;;14.82;75.40
64298;BME280;50639;53.270;7.956;2023-07-13T01:34:24;101260.47;;;14.86;75.57
64298;BME280;50639;53.270;7.956;2023-07-13T01:36:50;101262.72;;;14.96;74.98
64298;BME280;50639;53.270;7.956;2023-07-13T01:39:21;101256.72;;;15.00;75.13
64298;BME280;50639;53.270;7.956;2023-07-13T01:41:47;101258.78;;;14.98;75.43
64298;BME280;50639;53.270;7.956;2023-07-13T01:44:13;101256.94;;;14.92;75.47
64298;BME280;50639;53.270;7.956;2023-07-13T01:46:39;101252.59;;;14.98;75.37
64298;BME280;50639;53.270;7.956;2023-07-13T01:49:04;101251.38;;;14.94;74.72
64298;BME280;50639;53.270;7.956;2023-07-13T01:51:30;101254.66;;;14.96;75.23
64298;BME280;50639;53.270;7.956;2023-07-13T01:53:55;101253.63;;;14.90;75.32
64298;BME280;50639;53.270;7.956;2023-07-13T01:56:22;101249.09;;;14.91;75.11
64298;BME280;50639;53.270;7.956;2023-07-13T01:58:48;101265.22;;;14.91;75.36
64298;BME280;50639;53.270;7.956;2023-07-13T02:01:14;101253.22;;;14.93;74.57
64298;BME280;50639;53.270;7.956;2023-07-13T02:03:39;101260.25;;;14.94;75.26
64298;BME280;50639;53.270;7.956;2023-07-13T02:06:05;101260.84;;;14.96;75.08
64298;BME280;50639;53.270;7.956;2023-07-13T02:08:32;101264.16;;;15.05;75.21
64298;BME280;50639;53.270;7.956;2023-07-13T02:10:58;101264.78;;;15.14;75.21
64298;BME280;50639;53.270;7.956;2023-07-13T02:13:24;101261.47;;;15.18;75.80
64298;BME280;50639;53.270;7.956;2023-07-13T02:15:53;101266.84;;;15.18;74.91
64298;BME280;50639;53.270;7.956;2023-07-13T02:18:19;101268.72;;;15.04;75.91
64298;BME280;50639;53.270;7.956;2023-07-13T02:20:45;101266.84;;;15.18;75.35
64298;BME280;50639;53.270;7.956;2023-07-13T02:23:11;101265.38;;;15.22;74.36
64298;BME280;50639;53.270;7.956;2023-07-13T02:25:36;101264.13;;;15.31;74.51
64298;BME280;50639;53.270;7.956;2023-07-13T02:28:02;101262.47;;;15.37;74.24
64298;BME280;50639;53.270;7.956;2023-07-13T02:30:28;101263.28;;;15.44;74.07
64298;BME280;50639;53.270;7.956;2023-07-13T02:32:58;101271.34;;;15.44;74.46
64298;BME280;50639;53.270;7.956;2023-07-13T02:35:23;101263.91;;;15.46;74.23
64298;BME280;50639;53.270;7.956;2023-07-13T02:37:49;101268.25;;;15.47;74.58
64298;BME280;50639;53.270;7.956;2023-07-13T02:40:14;101263.69;;;15.48;74.50
64298;BME280;50639;53.270;7.956;2023-07-13T02:42:40;101265.94;;;15.57;73.58
64298;BME280;50639;53.270;7.956;2023-07-13T02:45:07;101264.66;;;15.66;74.12
64298;BME280;50639;53.270;7.956;2023-07-13T02:47:33;101261.75;;;15.68;74.23
64298;BME280;50639;53.270;7.956;2023-07-13T02:49:58;101265.03;;;15.76;73.28
64298;BME280;50639;53.270;7.956;2023-07-13T02:52:24;101269.19;;;15.79;72.81
64298;BME280;50639;53.270;7.956;2023-07-13T02:54:50;101266.69;;;15.77;73.14
64298;BME280;50639;53.270;7.956;2023-07-13T02:57:16;101268.78;;;15.82;73.04
64298;BME280;50639;53.270;7.956;2023-07-13T02:59:41;101270.19;;;15.85;73.12
64298;BME280;50639;53.270;7.956;2023-07-13T03:02:07;101271.44;;;15.89;73.57
64298;BME280;50639;53.270;7.956;2023-07-13T03:04:35;101273.72;;;15.92;73.09
64298;BME280;50639;53.270;7.956;2023-07-13T03:07:02;101273.72;;;15.92;72.87
64298;BME280;50639;53.270;7.956;2023-07-13T03:09:34;101271.00;;;15.92;73.57
64298;BME280;50639;53.270;7.956;2023-07-13T03:12:01;101268.53;;;15.90;73.45
64298;BME280;50639;53.270;7.956;2023-07-13T03:14:30;101264.19;;;15.89;73.47
64298;BME280;50639;53.270;7.956;2023-07-13T03:16:56;101270.19;;;15.91;73.42
64298;BME280;50639;53.270;7.956;2023-07-13T03:19:24;101268.91;;;15.94;73.42
64298;BME280;50639;53.270;7.956;2023-07-13T03:21:51;101262.53;;;15.88;73.88
64298;BME280;50639;53.270;7.956;2023-07-13T03:24:16;101271.00;;;15.92;73.88
64298;BME280;50639;53.270;7.956;2023-07-13T03:26:42;101274.09;;;15.95;73.60
64298;BME280;50639;53.270;7.956;2023-07-13T03:29:08;101266.03;;;15.89;73.87
64298;BME280;50639;53.270;7.956;2023-07-13T03:31:35;101271.22;;;15.90;73.97
64298;BME280;50639;53.270;7.956;2023-07-13T03:34:02;101280.31;;;15.96;73.64
64298;BME280;50639;53.270;7.956;2023-07-13T03:36:30;101275.78;;;15.90;74.00
64298;BME280;50639;53.270;7.956;2023-07-13T03:39:00;101280.50;;;15.94;74.01
64298;BME280;50639;53.270;7.956;2023-07-13T03:41:34;101278.22;;;15.98;73.89
64298;BME280;50639;53.270;7.956;2023-07-13T03:43:59;101274.03;;;16.02;73.81
64298;BME280;50639;53.270;7.956;2023-07-13T03:46:26;101279.88;;;15.99;73.87
64298;BME280;50639;53.270;7.956;2023-07-13T03:48:52;101284.47;;;15.92;74.24
64298;BME280;50639;53.270;7.956;2023-07-13T03:51:18;101286.94;;;16.00;74.19
64298;BME280;50639;53.270;7.956;2023-07-13T03:53:46;101283.41;;;15.99;74.16
64298;BME280;50639;53.270;7.956;2023-07-13T03:56:15;101288.56;;;16.01;74.36
64298;BME280;50639;53.270;7.956;2023-07-13T03:58:43;101289.41;;;15.95;74.53
64298;BME280;50639;53.270;7.956;2023-07-13T04:01:15;101284.03;;;15.95;74.58
64298;BME280;50639;53.270;7.956;2023-07-13T04:03:41;101289.88;;;15.92;74.96
64298;BME280;50639;53.270;7.956;2023-07-13T04:06:13;101295.84;;;16.00;74.98
64298;BME280;50639;53.270;7.956;2023-07-13T04:08:40;101297.09;;;15.98;75.12
64298;BME280;50639;53.270;7.956;2023-07-13T04:11:06;101301.44;;;15.99;75.07
64298;BME280;50639;53.270;7.956;2023-07-13T04:13:32;101298.53;;;16.00;75.07
64298;BME280;50639;53.270;7.956;2023-07-13T04:15:58;101296.63;;;16.01;75.75
64298;BME280;50639;53.270;7.956;2023-07-13T04:18:24;101293.91;;;16.14;75.25
64298;BME280;50639;53.270;7.956;2023-07-13T04:20:50;101300.53;;;16.18;74.95
64298;BME280;50639;53.270;7.956;2023-07-13T04:23:18;101292.84;;;16.15;74.83
64298;BME280;50639;53.270;7.956;2023-07-13T04:25:48;101300.13;;;16.14;75.09
64298;BME280;50639;53.270;7.956;2023-07-13T04:28:22;101299.25;;;16.21;75.06
64298;BME280;50639;53.270;7.956;2023-07-13T04:30:49;101295.13;;;16.18;75.19
64298;BME280;50639;53.270;7.956;2023-07-13T04:33:14;101302.56;;;16.23;75.36
64298;BME280;50639;53.270;7.956;2023-07-13T04:35:42;101301.31;;;16.25;74.98
64298;BME280;50639;53.270;7.956;2023-07-13T04:38:08;101298.34;;;16.33;74.85
64298;BME280;50639;53.270;7.956;2023-07-13T04:40:36;101302.88;;;16.39;74.89
64298;BME280;50639;53.270;7.956;2023-07-13T04:43:02;101297.84;;;16.49;75.08
64298;BME280;50639;53.270;7.956;2023-07-13T04:45:28;101305.03;;;16.55;74.46
64298;BME280;50639;53.270;7.956;2023-07-13T04:47:53;101298.66;;;16.50;74.59
64298;BME280;50639;53.270;7.956;2023-07-13T04:50:19;101307.94;;;16.54;74.31
64298;BME280;50639;53.270;7.956;2023-07-13T04:52:51;101302.81;;;16.46;75.18
64298;BME280;50639;53.270;7.956;2023-07-13T04:55:18;101304.81;;;16.64;74.67
64298;BME280;50639;53.270;7.956;2023-07-13T04:57:44;101295.50;;;16.60;74.68
64298;BME280;50639;53.270;7.956;2023-07-13T05:00:11;101298.56;;;16.70;74.40
64298;BME280;50639;53.270;7.956;2023-07-13T05:02:38;101309.09;;;16.78;74.14
64298;BME280;50639;53.270;7.956;2023-07-13T05:05:05;101313.47;;;16.72;74.12
64298;BME280;50639;53.270;7.956;2023-07-13T05:07:31;101313.03;;;16.75;74.41
64298;BME280;50639;53.270;7.956;2023-07-13T05:09:59;101316.56;;;16.76;74.21
64298;BME280;50639;53.270;7.956;2023-07-13T05:12:25;101322.53;;;16.84;74.08
64298;BME280;50639;53.270;7.956;2023-07-13T05:14:51;101322.47;;;16.91;73.69
64298;BME280;50639;53.270;7.956;2023-07-13T05:17:17;101329.56;;;16.85;74.51
64298;BME280;50639;53.270;7.956;2023-07-13T05:19:43;101329.50;;;16.92;73.82
64298;BME280;50639;53.270;7.956;2023-07-13T05:22:11;101334.09;;;16.91;74.04
64298;BME280;50639;53.270;7.956;2023-07-13T05:24:37;101338.50;;;16.86;73.97
64298;BME280;50639;53.270;7.956;2023-07-13T05:27:03;101339.00;;;17.01;73.64
64298;BME280;50639;53.270;7.956;2023-07-13T05:29:29;101335.66;;;17.06;73.88
64298;BME280;50639;53.270;7.956;2023-07-13T05:31:56;101333.78;;;17.06;73.51
64298;BME280;50639;53.270;7.956;2023-07-13T05:34:23;101344.72;;;17.11;73.42
64298;BME280;50639;53.270;7.956;2023-07-13T05:36:49;101339.53;;;17.10;73.33
64298;BME280;50639;53.270;7.956;2023-07-13T05:39:15;101341.28;;;16.98;73.63
64298;BME280;50639;53.270;7.956;2023-07-13T05:41:42;101347.22;;;16.81;74.13
64298;BME280;50639;53.270;7.956;2023-07-13T05:44:07;101335.34;;;16.89;73.97
64298;BME280;50639;53.270;7.956;2023-07-13T05:46:33;101337.81;;;16.90;73.98
64298;BME280;50639;53.270;7.956;2023-07-13T05:48:59;101332.94;;;17.06;73.60
64298;BME280;50639;53.270;7.956;2023-07-13T05:51:24;101344.44;;;17.19;73.13
64298;BME280;50639;53.270;7.956;2023-07-13T05:53:50;101347.91;;;17.26;73.23
64298;BME280;50639;53.270;7.956;2023-07-13T05:56:15;101349.66;;;17.39;72.92
64298;BME280;50639;53.270;7.956;2023-07-13T05:58:41;101350.81;;;17.50;71.97
64298;BME280;50639;53.270;7.956;2023-07-13T06:01:10;101360.69;;;17.62;72.28
64298;BME280;50639;53.270;7.956;2023-07-13T06:03:36;101361.22;;;17.71;72.05
64298;BME280;50639;53.270;7.956;2023-07-13T06:06:04;101362.66;;;17.74;72.01
64298;BME280;50639;53.270;7.956;2023-07-13T06:08:30;101364.84;;;18.01;70.95
64298;BME280;50639;53.270;7.956;2023-07-13T06:11:11;101361.50;;;18.36;69.05
64298;BME280;50639;53.270;7.956;2023-07-13T06:13:37;101369.88;;;18.46;68.74
64298;BME280;50639;53.270;7.956;2023-07-13T06:16:03;101371.69;;;18.34;69.00
64298;BME280;50639;53.270;7.956;2023-07-13T06:18:30;101370.53;;;18.12;69.72
64298;BME280;50639;53.270;7.956;2023-07-13T06:20:56;101371.06;;;18.20;69.48
64298;BME280;50639;53.270;7.956;2023-07-13T06:23:22;101370.78;;;18.40;69.96
64298;BME280;50639;53.270;7.956;2023-07-13T06:25:48;101373.47;;;18.58;69.64
64298;BME280;50639;53.270;7.956;2023-07-13T06:28:14;101374.91;;;18.42;68.79
64298;BME280;50639;53.270;7.956;2023-07-13T06:30:39;101384.94;;;18.24;69.76
64298;BME280;50639;53.270;7.956;2023-07-13T06:33:05;101387.63;;;18.24;69.74
64298;BME280;50639;53.270;7.956;2023-07-13T06:35:30;101387.19;;;18.27;69.98
64298;BME280;50639;53.270;7.956;2023-07-13T06:37:56;101391.78;;;18.26;69.97
64298;BME280;50639;53.270;7.956;2023-07-13T06:40:21;101394.31;;;18.21;70.00
64298;BME280;50639;53.270;7.956;2023-07-13T06:42:47;101389.91;;;18.27;70.18
64298;BME280;50639;53.270;7.956;2023-07-13T06:45:12;101394.88;;;18.12;70.95
64298;BME280;50639;53.270;7.956;2023-07-13T06:47:38;101402.44;;;18.21;71.17
64298;BME280;50639;53.270;7.956;2023-07-13T06:50:03;101394.88;;;18.12;70.99
64298;BME280;50639;53.270;7.956;2023-07-13T06:52:29;101389.59;;;18.17;70.83
64298;BME280;50639;53.270;7.956;2023-07-13T06:54:54;101387.72;;;18.17;70.76
64298;BME280;50639;53.270;7.956;2023-07-13T06:57:20;101387.28;;;18.20;71.30
64298;BME280;50639;53.270;7.956;2023-07-13T06:59:45;101387.31;;;18.32;71.45
64298;BME280;50639;53.270;7.956;2023-07-13T07:02:11;101394.47;;;18.45;70.47
64298;BME280;50639;53.270;7.956;2023-07-13T07:04:36;101390.31;;;18.42;70.70
64298;BME280;50639;53.270;7.956;2023-07-13T07:07:02;101401.81;;;18.56;70.34
64298;BME280;50639;53.270;7.956;2023-07-13T07:09:28;101389.94;;;18.57;70.63
64298;BME280;50639;53.270;7.956;2023-07-13T07:11:55;101395.28;;;18.63;69.83
64298;BME280;50639;53.270;7.956;2023-07-13T07:14:21;101398.84;;;18.75;69.39
64298;BME280;50639;53.270;7.956;2023-07-13T07:16:46;101388.50;;;18.84;69.34
64298;BME280;50639;53.270;7.956;2023-07-13T07:19:12;101383.50;;;18.99;69.20
64298;BME280;50639;53.270;7.956;2023-07-13T07:21:37;101390.91;;;19.04;68.63
64298;BME280;50639;53.270;7.956;2023-07-13T07:24:04;101383.47;;;18.88;68.48
64298;BME280;50639;53.270;7.956;2023-07-13T07:26:30;101392.91;;;18.97;68.64
64298;BME280;50639;53.270;7.956;2023-07-13T07:28:55;101388.13;;;19.22;68.00
64298;BME280;50639;53.270;7.956;2023-07-13T07:31:21;101392.63;;;19.40;67.13
64298;BME280;50639;53.270;7.956;2023-07-13T07:33:46;101389.47;;;19.54;66.87
64298;BME280;50639;53.270;7.956;2023-07-13T07:36:12;101383.34;;;19.47;65.56
64298;BME280;50639;53.270;7.956;2023-07-13T07:38:39;101386.06;;;19.59;65.66
64298;BME280;50639;53.270;7.956;2023-07-13T07:41:06;101381.94;;;19.68;66.12
64298;BME280;50639;53.270;7.956;2023-07-13T07:43:31;101391.13;;;19.79;65.91
64298;BME280;50639;53.270;7.956;2023-07-13T07:45:57;101391.97;;;19.68;66.48
64298;BME280;50639;53.270;7.956;2023-07-13T07:48:22;101385.47;;;19.69;65.75
64298;BME280;50639;53.270;7.956;2023-07-13T07:50:48;101394.53;;;19.74;65.88
64298;BME280;50639;53.270;7.956;2023-07-13T07:53:14;101398.28;;;19.97;65.79
64298;BME280;50639;53.270;7.956;2023-07-13T07:55:39;101393.53;;;20.15;64.44
64298;BME280;50639;53.270;7.956;2023-07-13T07:58:05;101397.88;;;20.16;63.66
64298;BME280;50639;53.270;7.956;2023-07-13T08:00:32;101401.78;;;20.20;63.54
64298;BME280;50639;53.270;7.956;2023-07-13T08:02:58;101400.47;;;20.35;63.01
64298;BME280;50639;53.270;7.956;2023-07-13T08:05:24;101397.94;;;20.33;61.75
64298;BME280;50639;53.270;7.956;2023-07-13T08:07:50;101402.94;;;20.24;60.84
64298;BME280;50639;53.270;7.956;2023-07-13T08:10:16;101394.97;;;20.58;60.89
64298;BME280;50639;53.270;7.956;2023-07-13T08:12:41;101396.50;;;20.54;60.44
64298;BME280;50639;53.270;7.956;2023-07-13T08:15:10;101405.88;;;20.46;61.75
64298;BME280;50639;53.270;7.956;2023-07-13T08:17:36;101402.78;;;20.43;59.66
64298;BME280;50639;53.270;7.956;2023-07-13T08:20:02;101405.06;;;20.34;60.04
64298;BME280;50639;53.270;7.956;2023-07-13T08:22:28;101407.91;;;20.39;59.81
64298;BME280;50639;53.270;7.956;2023-07-13T08:24:53;101397.56;;;20.53;59.66
64298;BME280;50639;53.270;7.956;2023-07-13T08:27:26;101408.31;;;20.76;59.32
64298;BME280;50639;53.270;7.956;2023-07-13T08:29:52;101410.72;;;20.73;60.79
64298;BME280;50639;53.270;7.956;2023-07-13T08:32:19;101418.50;;;20.69;60.53
64298;BME280;50639;53.270;7.956;2023-07-13T08:34:45;101409.25;;;20.53;61.05
64298;BME280;50639;53.270;7.956;2023-07-13T08:37:11;101404.81;;;20.24;60.49
64298;BME280;50639;53.270;7.956;2023-07-13T08:39:36;101415.97;;;20.51;59.04
64298;BME280;50639;53.270;7.956;2023-07-13T08:42:11;101409.78;;;20.67;58.61
64298;BME280;50639;53.270;7.956;2023-07-13T08:47:14;101419.16;;;21.04;56.63
64298;BME280;50639;53.270;7.956;2023-07-13T08:49:41;101412.13;;;21.20;57.33
64298;BME280;50639;53.270;7.956;2023-07-13T08:52:13;101417.31;;;21.22;55.95
64298;BME280;50639;53.270;7.956;2023-07-13T08:54:45;101418.13;;;21.39;56.85
64298;BME280;50639;53.270;7.956;2023-07-13T08:57:20;101409.00;;;21.62;55.59
64298;BME280;50639;53.270;7.956;2023-07-13T08:59:47;101411.69;;;21.78;55.37
64298;BME280;50639;53.270;7.956;2023-07-13T09:02:39;101399.06;;;21.89;54.54
64298;BME280;50639;53.270;7.956;2023-07-13T09:05:18;101412.31;;;21.86;53.61
64298;BME280;50639;53.270;7.956;2023-07-13T09:10:53;101402.31;;;21.53;52.37
64298;BME280;50639;53.270;7.956;2023-07-13T09:13:34;101410.41;;;21.31;53.06
64298;BME280;50639;53.270;7.956;2023-07-13T09:16:03;101418.31;;;21.32;55.30
64298;BME280;50639;53.270;7.956;2023-07-13T09:18:37;101411.47;;;21.30;54.59
64298;BME280;50639;53.270;7.956;2023-07-13T09:21:09;101409.56;;;21.30;55.38
64298;BME280;50639;53.270;7.956;2023-07-13T09:23:36;101407.81;;;21.74;54.57
64298;BME280;50639;53.270;7.956;2023-07-13T09:26:19;101418.06;;;21.51;53.51
64298;BME280;50639;53.270;7.956;2023-07-13T09:29:14;101411.88;;;21.94;53.03
64298;BME280;50639;53.270;7.956;2023-07-13T09:31:47;101424.63;;;21.71;54.36
64298;BME280;50639;53.270;7.956;2023-07-13T09:34:14;101412.41;;;21.74;53.77
64298;BME280;50639;53.270;7.956;2023-07-13T09:36:40;101415.78;;;22.20;54.13
64298;BME280;50639;53.270;7.956;2023-07-13T09:39:10;101401.63;;;22.39;53.60
64298;BME280;50639;53.270;7.956;2023-07-13T09:41:47;101417.94;;;22.39;51.29
64298;BME280;50639;53.270;7.956;2023-07-13T09:46:58;101421.03;;;22.26;52.46
64298;BME280;50639;53.270;7.956;2023-07-13T09:49:29;101423.59;;;22.33;53.08
64298;BME280;50639;53.270;7.956;2023-07-13T09:52:00;101425.03;;;22.19;52.62
64298;BME280;50639;53.270;7.956;2023-07-13T09:54:27;101437.72;;;21.74;52.91
64298;BME280;50639;53.270;7.956;2023-07-13T09:56:59;101433.28;;;21.68;56.95
64298;BME280;50639;53.270;7.956;2023-07-13T09:59:40;101439.88;;;21.39;57.72
64298;BME280;50639;53.270;7.956;2023-07-13T10:02:22;101445.66;;;21.26;58.63
64298;BME280;50639;53.270;7.956;2023-07-13T10:04:55;101444.44;;;21.05;60.47
64298;BME280;50639;53.270;7.956;2023-07-13T10:07:24;101452.41;;;21.23;61.49
64298;BME280;50639;53.270;7.956;2023-07-13T10:09:53;101436.75;;;21.47;59.87
64298;BME280;50639;53.270;7.956;2023-07-13T10:12:20;101446.47;;;21.76;59.28
64298;BME280;50639;53.270;7.956;2023-07-13T10:14:46;101445.94;;;22.13;56.48
64298;BME280;50639;53.270;7.956;2023-07-13T10:17:14;101447.00;;;22.12;53.50
64298;BME280;50639;53.270;7.956;2023-07-13T10:19:41;101460.31;;;21.58;50.29
64298;BME280;50639;53.270;7.956;2023-07-13T10:22:36;101456.94;;;21.18;52.97
64298;BME280;50639;53.270;7.956;2023-07-13T10:25:12;101462.97;;;21.36;52.59
64298;BME280;50639;53.270;7.956;2023-07-13T10:27:39;101457.50;;;20.63;53.85
64298;BME280;50639;53.270;7.956;2023-07-13T10:32:39;101478.84;;;20.59;53.44
64298;BME280;50639;53.270;7.956;2023-07-13T10:35:10;101481.16;;;20.39;53.55
64298;BME280;50639;53.270;7.956;2023-07-13T10:37:48;101475.84;;;20.21;54.44
64298;BME280;50639;53.270;7.956;2023-07-13T10:40:20;101480.69;;;20.31;55.07
64298;BME280;50639;53.270;7.956;2023-07-13T10:42:50;101486.72;;;20.09;54.53
64298;BME280;50639;53.270;7.956;2023-07-13T10:45:21;101485.28;;;20.18;54.24
64298;BME280;50639;53.270;7.956;2023-07-13T10:47:48;101504.88;;;19.85;55.57
64298;BME280;50639;53.270;7.956;2023-07-13T10:50:25;101495.34;;;19.95;55.83
64298;BME280;50639;53.270;7.956;2023-07-13T10:52:55;101503.44;;;20.41;55.25
64298;BME280;50639;53.270;7.956;2023-07-13T10:55:41;101507.69;;;20.25;55.04
64298;BME280;50639;53.270;7.956;2023-07-13T10:58:13;101515.47;;;20.85;54.83
64298;BME280;50639;53.270;7.956;2023-07-13T11:00:46;101512.63;;;20.63;55.45
64298;BME280;50639;53.270;7.956;2023-07-13T11:03:15;101510.50;;;20.54;58.07
64298;BME280;50639;53.270;7.956;2023-07-13T11:05:42;101516.47;;;20.79;55.81
64298;BME280;50639;53.270;7.956;2023-07-13T11:10:55;101512.69;;;21.09;55.57
64298;BME280;50639;53.270;7.956;2023-07-13T11:18:51;101518.88;;;21.32;54.92
64298;BME280;50639;53.270;7.956;2023-07-13T11:21:18;101534.19;;;21.38;54.60
64298;BME280;50639;53.270;7.956;2023-07-13T11:23:51;101555.09;;;21.10;56.39
64298;BME280;50639;53.270;7.956;2023-07-13T11:31:43;101552.88;;;20.67;54.32
64298;BME280;50639;53.270;7.956;2023-07-13T11:34:19;101548.22;;;20.67;54.64
64298;BME280;50639;53.270;7.956;2023-07-13T11:36:47;101547.91;;;20.52;54.45
64298;BME280;50639;53.270;7.956;2023-07-13T11:39:32;101559.09;;;20.67;54.77
64298;BME280;50639;53.270;7.956;2023-07-13T11:42:05;101551.53;;;20.69;54.87
64298;BME280;50639;53.270;7.956;2023-07-13T11:44:33;101564.97;;;20.87;54.91
64298;BME280;50639;53.270;7.956;2023-07-13T11:47:08;101565.63;;;21.06;54.54
64298;BME280;50639;53.270;7.956;2023-07-13T11:49:42;101568.13;;;21.36;53.44
64298;BME280;50639;53.270;7.956;2023-07-13T11:52:17;101570.16;;;21.29;53.24
64298;BME280;50639;53.270;7.956;2023-07-13T11:54:49;101582.00;;;21.23;54.24
64298;BME280;50639;53.270;7.956;2023-07-13T11:57:33;101570.22;;;21.46;54.24
64298;BME280;50639;53.270;7.956;2023-07-13T12:00:03;101600.13;;;20.94;53.96
64298;BME280;50639;53.270;7.956;2023-07-13T12:02:43;101604.41;;;19.07;52.17
64298;BME280;50639;53.270;7.956;2023-07-13T12:05:14;101601.19;;;18.98;50.74
64298;BME280;50639;53.270;7.956;2023-07-13T12:07:41;101593.88;;;18.81;52.01
64298;BME280;50639;53.270;7.956;2023-07-13T12:10:23;101577.75;;;19.04;52.38
64298;BME280;50639;53.270;7.956;2023-07-13T12:12:58;101586.38;;;19.31;51.66
64298;BME280;50639;53.270;7.956;2023-07-13T12:15:43;101579.66;;;19.03;52.10
64298;BME280;50639;53.270;7.956;2023-07-13T12:18:14;101578.84;;;19.63;52.92
64298;BME280;50639;53.270;7.956;2023-07-13T12:20:40;101591.50;;;19.21;51.16
64298;BME280;50639;53.270;7.956;2023-07-13T12:23:10;101579.97;;;19.43;52.47
64298;BME280;50639;53.270;7.956;2023-07-13T12:25:40;101573.00;;;19.89;51.90
64298;BME280;50639;53.270;7.956;2023-07-13T12:28:22;101577.59;;;19.77;51.66
64298;BME280;50639;53.270;7.956;2023-07-13T12:30:49;101570.69;;;20.16;52.00
64298;BME280;50639;53.270;7.956;2023-07-13T12:33:16;101579.06;;;20.49;52.17
64298;BME280;50639;53.270;7.956;2023-07-13T12:35:46;101573.03;;;20.59;52.62
64298;BME280;50639;53.270;7.956;2023-07-13T12:38:13;101566.69;;;20.42;51.42
64298;BME280;50639;53.270;7.956;2023-07-13T12:40:40;101560.56;;;20.58;53.80
64298;BME280;50639;53.270;7.956;2023-07-13T12:43:11;101563.66;;;20.38;54.44
64298;BME280;50639;53.270;7.956;2023-07-13T12:45:38;101571.41;;;20.58;55.91
64298;BME280;50639;53.270;7.956;2023-07-13T12:48:10;101571.28;;;20.53;56.16
64298;BME280;50639;53.270;7.956;2023-07-13T12:50:41;101562.69;;;20.44;58.83
64298;BME280;50639;53.270;7.956;2023-07-13T12:53:14;101560.56;;;20.46;61.03
64298;BME280;50639;53.270;7.956;2023-07-13T12:56:02;101548.75;;;20.52;63.31
64298;BME280;50639;53.270;7.956;2023-07-13T12:58:37;101551.47;;;19.94;65.61
64298;BME280;50639;53.270;7.956;2023-07-13T13:01:04;101562.66;;;19.86;63.46
64298;BME280;50639;53.270;7.956;2023-07-13T13:03:34;101562.44;;;20.22;62.67
64298;BME280;50639;53.270;7.956;2023-07-13T13:08:41;101562.31;;;20.52;63.75
64298;BME280;50639;53.270;7.956;2023-07-13T13:11:08;101561.69;;;20.74;64.63
64298;BME280;50639;53.270;7.956;2023-07-13T13:13:34;101554.59;;;20.84;64.53
64298;BME280;50639;53.270;7.956;2023-07-13T13:18:48;101561.63;;;20.57;65.75
64298;BME280;50639;53.270;7.956;2023-07-13T13:21:15;101565.28;;;20.39;65.77
64298;BME280;50639;53.270;7.956;2023-07-13T13:23:41;101579.41;;;20.29;65.34
64298;BME280;50639;53.270;7.956;2023-07-13T13:26:11;101581.91;;;20.19;66.09